Silvianopolis, Brazil
Current Conditions -  °F | °C
As of 6:00 PM on Sunday 25 Jan 2015 (Local Time) from SBGW Reporting Station
Scattered Clouds Scattered Clouds  
Wind Chill: 91°   Ceiling: Unl
Heat Index: 91°   Visibility: 6mi
Dew Point: 61°   Wind: 3mph
Humidity: 36%   Direction: NA
Pressure: 29.88"   Gusts: NA
Location:  22.03°S, 45.83°W
Report Text: SBGW 252000Z VRB03KT 9999 SCT030 33/16 Q1012
Loading
Personal Weather Stations






























Interactive Weather Map New forecast layout! Learn more

10-Day Weather Forecast

Advertisements
Track Severe Weather on mobile